Time;durP1;ratioP1;P1;durP2;ratioP2;P2;SDS_P1;SDS_P2;PMS_P1;PMS_P2;Temp;Humidity;BMP_temperature;BMP_pressure;BME280_temperature;BME280_humidity;BME280_pressure;Samples;Min_cycle;Max_cycle;Signal;HPM_P1;HPM_P2
2023/01/26 00:02:01;;;;;;;10.65;3.78;;;33.70;99.90;;;;;;5014539;28;20614;-75
2023/01/26 00:04:28;;;;;;;8.32;3.30;;;33.70;99.90;;;;;;4997508;28;20186;-78
2023/01/26 00:06:56;;;;;;;7.13;3.30;;;33.80;99.90;;;;;;5014110;28;20193;-77
2023/01/26 00:09:23;;;;;;;11.13;3.58;;;33.90;99.90;;;;;;5014348;28;20182;-75
2023/01/26 00:11:50;;;;;;;7.10;2.92;;;34.20;99.90;;;;;;5015223;28;20204;-76
2023/01/26 00:14:18;;;;;;;11.80;3.38;;;34.50;99.90;;;;;;4997712;28;20178;-77
2023/01/26 00:16:45;;;;;;;9.27;3.40;;;35.00;99.90;;;;;;5020195;28;20639;-78
2023/01/26 00:19:23;;;;;;;7.03;3.65;;;34.80;99.90;;;;;;5016347;28;20182;-78
2023/01/26 00:22:00;;;;;;;6.88;3.13;;;34.70;99.90;;;;;;4998029;28;20213;-78
2023/01/26 00:24:27;;;;;;;4.35;3.03;;;34.90;99.90;;;;;;5017907;28;20236;-76
2023/01/26 00:26:55;;;;;;;5.53;3.22;;;35.40;99.90;;;;;;4996659;28;20230;-79
2023/01/26 00:29:31;;;;;;;4.43;3.13;;;35.40;99.90;;;;;;4997171;28;20233;-73
2023/01/26 00:32:01;;;;;;;6.75;3.15;;;35.20;99.90;;;;;;4998850;28;20217;-76
2023/01/26 00:34:29;;;;;;;5.47;3.30;;;35.00;99.90;;;;;;4998452;28;20640;-78
2023/01/26 00:36:57;;;;;;;6.40;3.60;;;35.60;99.90;;;;;;4998493;28;20202;-78
2023/01/26 00:39:25;;;;;;;5.28;3.28;;;35.90;99.90;;;;;;4998382;28;20175;-76
2023/01/26 00:42:14;;;;;;;6.60;3.35;;;36.00;99.90;;;;;;4999003;28;20211;-78
2023/01/26 00:44:45;;;;;;;5.60;3.25;;;35.90;99.90;;;;;;4998337;28;20190;-75
2023/01/26 00:47:13;;;;;;;5.35;3.35;;;35.90;99.90;;;;;;5000335;28;20186;-78
2023/01/26 00:49:41;;;;;;;5.47;3.40;;;35.50;99.90;;;;;;5003265;28;20296;-77
2023/01/26 00:52:15;;;;;;;7.43;2.90;;;35.90;99.90;;;;;;5002957;28;20246;-75
2023/01/26 00:54:45;;;;;;;4.78;3.15;;;36.70;97.00;;;;;;5000058;28;20249;-73
2023/01/26 00:57:19;;;;;;;3.10;2.80;;;36.60;99.70;;;;;;5020131;28;20181;-77
2023/01/26 00:59:46;;;;;;;3.38;2.60;;;36.50;92.10;;;;;;5023113;28;20201;-78
2023/01/26 01:02:20;;;;;;;5.22;2.70;;;36.40;92.90;;;;;;5016277;28;20589;-76
2023/01/26 01:04:48;;;;;;;7.63;3.03;;;36.80;96.10;;;;;;5006033;28;20189;-76
2023/01/26 01:07:15;;;;;;;5.45;3.35;;;36.90;93.80;;;;;;5024891;28;20193;-76
2023/01/26 01:09:48;;;;;;;9.00;2.97;;;36.80;93.00;;;;;;4999887;28;20182;-75
2023/01/26 01:12:21;;;;;;;3.58;2.58;;;37.40;91.10;;;;;;5016694;28;20213;-72
2023/01/26 01:14:48;;;;;;;6.40;2.85;;;;;;;;;;5020309;28;20184;-74
2023/01/26 01:17:22;;;;;;;7.30;3.03;;;38.00;83.30;;;;;;5019363;28;20215;-74
2023/01/26 01:19:49;;;;;;;7.78;2.85;;;38.60;74.40;;;;;;5000728;28;20217;-75
2023/01/26 01:22:19;;;;;;;6.70;2.78;;;38.80;75.40;;;;;;5019170;28;20276;-74
2023/01/26 01:24:50;;;;;;;4.05;2.45;;;38.50;70.20;;;;;;5018239;28;20181;-74
2023/01/26 01:27:26;;;;;;;9.00;2.60;;;38.60;73.90;;;;;;5017177;28;20229;-74
2023/01/26 01:29:58;;;;;;;5.88;3.28;;;38.60;84.20;;;;;;5000086;28;20178;-73
2023/01/26 01:32:35;;;;;;;3.40;2.60;;;39.20;73.50;;;;;;5017684;28;20205;-73
2023/01/26 01:35:03;;;;;;;3.53;2.78;;;39.80;73.00;;;;;;4999017;28;20177;-73
2023/01/26 01:37:32;;;;;;;3.58;2.15;;;39.60;68.90;;;;;;5014402;28;20182;-74
2023/01/26 01:40:03;;;;;;;5.47;2.67;;;39.60;71.60;;;;;;5014719;28;20185;-73
2023/01/26 01:42:32;;;;;;;4.10;2.47;;;39.70;68.20;;;;;;4995104;28;20226;-74
2023/01/26 01:45:28;;;;;;;7.70;2.58;;;39.80;70.30;;;;;;4996429;28;20185;-74
2023/01/26 01:48:01;;;;;;;4.38;2.47;;;39.30;64.00;;;;;;5013250;28;20184;-75
2023/01/26 01:50:35;;;;;;;5.10;2.90;;;39.40;59.10;;;;;;5013636;28;20192;-74
2023/01/26 01:53:18;;;;;;;3.13;2.47;;;39.30;65.30;;;;;;5013690;28;20174;-76
2023/01/26 01:55:50;;;;;;;4.10;2.22;;;39.30;66.30;;;;;;5014445;28;20197;-76
2023/01/26 01:58:17;;;;;;;2.00;1.85;;;39.50;69.90;;;;;;5012918;28;20182;-77
2023/01/26 02:00:45;;;;;;;4.10;2.40;;;40.00;61.10;;;;;;5013976;28;20253;-79
2023/01/26 02:03:19;;;;;;;2.83;2.00;;;40.10;57.60;;;;;;5015348;28;20178;-77
2023/01/26 02:06:08;;;;;;;3.65;1.73;;;39.50;56.20;;;;;;5012545;28;20233;-79
2023/01/26 02:08:51;;;;;;;3.67;1.88;;;39.50;50.10;;;;;;5013398;28;20206;-77
2023/01/26 02:11:49;;;;;;;2.30;1.80;;;39.00;48.00;;;;;;5013507;28;20209;-77
2023/01/26 02:14:23;;;;;;;3.65;2.25;;;38.70;51.30;;;;;;5012243;28;20182;-76
2023/01/26 02:16:51;;;;;;;3.03;1.60;;;38.80;51.10;;;;;;5012950;28;20185;-79
2023/01/26 02:19:27;;;;;;;2.38;1.77;;;39.00;44.00;;;;;;4995183;28;20243;-77
2023/01/26 02:22:07;;;;;;;3.55;1.75;;;39.30;45.50;;;;;;5012896;28;20220;-75
2023/01/26 02:24:41;;;;;;;3.13;1.60;;;39.20;48.00;;;;;;5004572;28;20174;-77
2023/01/26 02:27:11;;;;;;;2.75;1.85;;;39.30;42.90;;;;;;5006348;28;20698;-74
2023/01/26 02:29:40;;;;;;;1.25;1.00;;;39.10;37.20;;;;;;4994783;28;20182;-76
2023/01/26 02:32:11;;;;;;;4.97;1.38;;;39.30;39.50;;;;;;4963320;28;20181;-75
2023/01/26 02:34:38;;;;;;;2.03;1.30;;;39.40;37.90;;;;;;4994103;28;20635;-75
2023/01/26 02:37:12;;;;;;;1.95;1.20;;;39.60;40.40;;;;;;5010549;28;20190;-69
2023/01/26 02:40:04;;;;;;;2.10;1.15;;;39.50;41.50;;;;;;5000855;28;20253;-70
2023/01/26 02:42:39;;;;;;;4.03;1.20;;;39.40;37.10;;;;;;4994058;28;20623;-72
2023/01/26 02:45:09;;;;;;;1.30;1.05;;;39.00;36.00;;;;;;5012326;28;20650;-71
2023/01/26 02:47:36;;;;;;;3.90;1.50;;;39.10;35.70;;;;;;4994005;28;20285;-70
2023/01/26 02:50:08;;;;;;;2.17;1.38;;;39.20;36.00;;;;;;5012247;28;20178;-69
2023/01/26 02:52:37;;;;;;;4.88;1.30;;;39.40;35.60;;;;;;5012206;28;20182;-70
2023/01/26 02:55:28;;;;;;;1.95;1.30;;;39.20;39.40;;;;;;5011972;28;20182;-70
2023/01/26 02:58:04;;;;;;;9.23;1.25;;;39.20;41.30;;;;;;5012287;28;20170;-70
2023/01/26 03:00:36;;;;;;;1.08;0.98;;;39.20;41.20;;;;;;5011813;28;20258;-69
2023/01/26 03:03:18;;;;;;;2.38;1.10;;;39.30;40.40;;;;;;5012158;28;20592;-69
2023/01/26 03:05:46;;;;;;;1.60;0.98;;;39.50;41.60;;;;;;4993832;28;20677;-69
2023/01/26 03:08:14;;;;;;;3.13;1.38;;;39.70;39.60;;;;;;5012010;28;20186;-69
2023/01/26 03:10:46;;;;;;;4.68;1.40;;;39.70;39.80;;;;;;4994319;28;20193;-70
2023/01/26 03:13:14;;;;;;;1.60;1.30;;;39.90;42.00;;;;;;5012169;28;20178;-70
2023/01/26 03:15:51;;;;;;;2.25;1.20;;;40.10;41.90;;;;;;4993983;28;20674;-68
2023/01/26 03:29:43;;;;;;;3.47;1.25;;;38.80;33.60;;;;;;5015979;28;20236;-70
2023/01/26 03:32:11;;;;;;;1.83;1.05;;;38.80;33.50;;;;;;5015793;28;20178;-71
2023/01/26 03:34:41;;;;;;;1.23;0.80;;;39.20;38.50;;;;;;4997392;28;20213;-71
2023/01/26 03:37:09;;;;;;;2.90;1.30;;;39.00;30.00;;;;;;5015505;28;20182;-70
2023/01/26 03:56:34;;;;;;;1.35;0.80;;;36.00;31.10;;;;;;5015745;28;20240;-70
2023/01/26 03:59:13;;;;;;;2.15;1.00;;;35.70;32.50;;;;;;4997662;28;20206;-71
2023/01/26 04:10:09;;;;;;;2.05;0.98;;;34.90;40.10;;;;;;5011565;28;20209;-69
2023/01/26 04:12:40;;;;;;;2.05;1.63;;;34.80;40.90;;;;;;5014904;28;20174;-69
2023/01/26 04:23:23;;;;;;;7.32;3.42;;;33.90;91.50;;;;;;5014534;28;20287;-71
2023/01/26 04:25:51;;;;;;;6.25;3.75;;;33.70;99.90;;;;;;4996779;28;20188;-71
2023/01/26 04:28:18;;;;;;;5.78;3.38;;;33.50;99.90;;;;;;4996313;28;20762;-70
2023/01/26 04:30:46;;;;;;;5.10;3.38;;;33.10;99.90;;;;;;5013901;28;20232;-71
2023/01/26 04:33:13;;;;;;;6.18;3.90;;;32.90;99.90;;;;;;5014348;28;20241;-69
2023/01/26 04:35:44;;;;;;;8.20;4.30;;;32.50;99.90;;;;;;5014058;28;20241;-69
2023/01/26 04:38:14;;;;;;;7.90;4.70;;;32.40;99.90;;;;;;5014455;28;20181;-70
2023/01/26 04:40:42;;;;;;;8.07;4.30;;;32.10;99.90;;;;;;5014308;28;20214;-71
2023/01/26 04:43:12;;;;;;;10.40;4.90;;;31.90;99.90;;;;;;5013642;28;20186;-69
2023/01/26 04:45:42;;;;;;;7.32;4.50;;;31.80;99.90;;;;;;5014069;28;20666;-72
2023/01/26 04:48:15;;;;;;;10.18;5.80;;;31.80;99.90;;;;;;5012519;28;20214;-83
2023/01/26 04:50:43;;;;;;;9.45;5.20;;;31.70;99.90;;;;;;4998097;28;20639;-81
2023/01/26 04:53:13;;;;;;;10.50;5.18;;;31.80;99.90;;;;;;5016069;28;20558;-82
2023/01/26 04:55:41;;;;;;;9.02;4.80;;;32.00;99.90;;;;;;5015999;28;20182;-83
2023/01/26 04:58:08;;;;;;;11.40;5.35;;;32.10;99.90;;;;;;5017174;28;20626;-81
2023/01/26 05:00:35;;;;;;;11.50;6.07;;;32.20;99.90;;;;;;5015800;28;20635;-84
2023/01/26 05:03:03;;;;;;;8.23;5.63;;;32.30;99.90;;;;;;5015362;28;20189;-83
2023/01/26 05:05:30;;;;;;;11.65;5.35;;;33.30;99.90;;;;;;5014781;28;20178;-83
2023/01/26 05:07:57;;;;;;;11.82;5.47;;;33.90;99.90;;;;;;5014623;28;20174;-82
2023/01/26 05:10:25;;;;;;;12.25;5.18;;;33.80;99.90;;;;;;5015170;28;20304;-84
2023/01/26 05:12:52;;;;;;;9.38;5.13;;;33.20;99.90;;;;;;4997230;28;20528;-82
2023/01/26 05:15:23;;;;;;;9.13;4.57;;;33.00;99.90;;;;;;5015160;28;20696;-83
2023/01/26 05:17:50;;;;;;;5.25;4.45;;;33.10;99.90;;;;;;5015009;28;20525;-84
2023/01/26 05:20:18;;;;;;;7.20;4.32;;;33.30;99.90;;;;;;4996894;28;20186;-81
2023/01/26 05:22:46;;;;;;;6.28;4.25;;;33.30;99.90;;;;;;4997002;28;20182;-83
2023/01/26 05:25:13;;;;;;;8.63;4.20;;;33.30;99.90;;;;;;5014442;28;20184;-84
2023/01/26 05:27:40;;;;;;;6.80;4.05;;;33.10;99.90;;;;;;5017242;28;20303;-81
2023/01/26 05:30:09;;;;;;;5.25;4.00;;;33.20;99.90;;;;;;5021011;28;20181;-82
2023/01/26 05:32:37;;;;;;;8.50;4.22;;;33.20;99.90;;;;;;5014117;28;20178;-83
2023/01/26 05:35:05;;;;;;;7.82;4.68;;;33.20;99.90;;;;;;4996837;28;20524;-79
2023/01/26 05:37:36;;;;;;;10.20;3.75;;;33.10;99.90;;;;;;5014394;28;20178;-80
2023/01/26 05:40:04;;;;;;;6.65;3.40;;;33.00;99.90;;;;;;4996997;28;20182;-84
2023/01/26 05:42:31;;;;;;;7.68;3.50;;;32.90;99.90;;;;;;5013539;28;20309;-84
2023/01/26 05:45:09;;;;;;;;;;;;;;;;;;;;;
2023/01/26 05:47:41;;;;;;;11.25;3.55;;;32.70;99.90;;;;;;5013741;28;20200;-84
2023/01/26 05:50:09;;;;;;;9.55;3.40;;;32.70;99.90;;;;;;5014206;28;20284;-84
2023/01/26 05:52:41;;;;;;;7.88;3.08;;;32.70;99.90;;;;;;5013164;28;20209;-83
2023/01/26 05:55:13;;;;;;;5.15;3.35;;;32.80;99.90;;;;;;5014231;28;20244;-84
2023/01/26 05:57:40;;;;;;;4.80;3.22;;;32.70;99.90;;;;;;5014015;28;20277;-81
2023/01/26 06:00:10;;;;;;;7.95;3.35;;;32.90;99.90;;;;;;5013968;28;20178;-82
2023/01/26 06:02:37;;;;;;;5.50;3.00;;;33.10;99.90;;;;;;4995506;28;20213;-78
2023/01/26 06:05:05;;;;;;;5.05;2.83;;;33.40;99.90;;;;;;4994370;28;20183;-84
2023/01/26 06:07:36;;;;;;;3.92;2.92;;;33.70;99.90;;;;;;4994897;28;20627;-81
2023/01/26 06:10:07;;;;;;;4.85;2.58;;;33.90;99.90;;;;;;4995219;28;20264;-81
2023/01/26 06:12:37;;;;;;;5.40;2.50;;;33.70;99.90;;;;;;5013460;28;20182;-83
2023/01/26 06:15:13;;;;;;;5.47;2.22;;;33.90;99.90;;;;;;5014013;28;20177;-80
2023/01/26 06:17:43;;;;;;;5.35;2.38;;;33.90;96.40;;;;;;5013923;28;20185;-80
2023/01/26 06:20:14;;;;;;;5.25;2.75;;;33.70;99.90;;;;;;4995388;28;20718;-78
2023/01/26 06:22:41;;;;;;;5.85;2.30;;;33.30;99.90;;;;;;5012536;28;20285;-83
2023/01/26 06:25:12;;;;;;;8.02;2.50;;;33.00;98.50;;;;;;5013525;28;20205;-84
2023/01/26 06:27:40;;;;;;;3.58;2.38;;;32.70;97.70;;;;;;5013289;28;20230;-81
2023/01/26 06:30:09;;;;;;;5.18;2.80;;;32.60;99.90;;;;;;5013554;28;20174;-82
2023/01/26 06:32:39;;;;;;;5.57;3.25;;;32.50;99.90;;;;;;5011350;28;20710;-81
2023/01/26 06:35:07;;;;;;;7.78;2.83;;;32.30;99.90;;;;;;4995374;28;20182;-84
2023/01/26 06:37:35;;;;;;;5.22;2.85;;;32.20;99.90;;;;;;4994014;28;20244;-80
2023/01/26 06:40:03;;;;;;;3.78;2.50;;;32.10;99.90;;;;;;5012928;28;20235;-83
2023/01/26 06:42:36;;;;;;;3.17;2.53;;;32.10;99.90;;;;;;5012973;28;20308;-85
2023/01/26 06:45:03;;;;;;;6.63;2.58;;;32.00;99.90;;;;;;4994175;28;20186;-82
2023/01/26 06:47:31;;;;;;;4.47;2.50;;;31.90;99.90;;;;;;5013247;28;20177;-84
2023/01/26 06:50:01;;;;;;;6.53;2.72;;;31.80;99.90;;;;;;5013200;28;20173;-76
2023/01/26 06:52:35;;;;;;;6.25;2.92;;;31.80;99.90;;;;;;5013246;28;20178;-78
2023/01/26 06:55:04;;;;;;;4.40;2.85;;;31.80;99.90;;;;;;5012593;28;20271;-83
2023/01/26 06:57:31;;;;;;;3.08;2.40;;;31.90;99.90;;;;;;5012783;28;20525;-80
2023/01/26 06:59:59;;;;;;;9.30;2.60;;;31.90;99.90;;;;;;5013013;28;20217;-83
2023/01/26 07:02:26;;;;;;;4.20;2.53;;;32.00;99.90;;;;;;4995179;28;20220;-79
2023/01/26 07:04:54;;;;;;;8.38;2.88;;;32.00;99.90;;;;;;5012912;28;20277;-83
2023/01/26 07:07:21;;;;;;;5.82;2.97;;;31.90;99.90;;;;;;5013190;28;20177;-82
2023/01/26 07:09:49;;;;;;;4.05;2.75;;;31.80;99.90;;;;;;4995450;28;20174;-80
2023/01/26 07:12:16;;;;;;;6.57;3.10;;;31.80;99.90;;;;;;5013011;28;20209;-81
2023/01/26 07:14:44;;;;;;;11.52;4.13;;;31.80;99.90;;;;;;5020996;28;20238;-80
2023/01/26 07:17:11;;;;;;;8.27;4.18;;;31.70;99.90;;;;;;5018703;28;20285;-79
2023/01/26 07:19:38;;;;;;;10.20;4.77;;;31.50;99.90;;;;;;5013352;28;20181;-83
2023/01/26 07:22:09;;;;;;;6.93;4.45;;;31.20;99.90;;;;;;5012836;28;20275;-80
2023/01/26 07:24:37;;;;;;;8.13;4.13;;;31.10;99.90;;;;;;5012766;28;20182;-81
2023/01/26 07:27:06;;;;;;;7.45;4.43;;;30.90;99.90;;;;;;4993859;28;20233;-81
2023/01/26 07:29:33;;;;;;;8.45;4.97;;;30.90;99.90;;;;;;5011622;28;20554;-77
2023/01/26 07:32:01;;;;;;;6.67;4.37;;;30.90;99.90;;;;;;5013399;28;20181;-80
2023/01/26 07:34:28;;;;;;;8.48;3.92;;;30.90;99.90;;;;;;5012710;28;20185;-83
2023/01/26 07:36:55;;;;;;;9.38;4.72;;;30.80;99.90;;;;;;5012533;28;20269;-83
2023/01/26 07:39:23;;;;;;;7.65;4.80;;;30.80;99.90;;;;;;5012582;28;20181;-82
2023/01/26 07:41:51;;;;;;;9.02;5.22;;;30.80;99.90;;;;;;5012850;28;20209;-78
2023/01/26 07:44:18;;;;;;;8.20;4.53;;;30.70;99.90;;;;;;5008598;28;20186;-85
2023/01/26 07:46:46;;;;;;;8.13;5.13;;;30.60;99.90;;;;;;5009165;28;20630;-81
2023/01/26 07:49:13;;;;;;;10.73;4.93;;;30.50;99.90;;;;;;5013406;28;20257;-85
2023/01/26 07:51:41;;;;;;;9.07;4.77;;;30.30;99.90;;;;;;4995141;28;20209;-85
2023/01/26 07:54:13;;;;;;;7.83;4.30;;;30.30;99.90;;;;;;5012723;28;20256;-84
2023/01/26 07:56:42;;;;;;;8.87;4.93;;;30.10;99.90;;;;;;5012119;28;20339;-86
2023/01/26 07:59:11;;;;;;;9.37;4.70;;;30.10;99.90;;;;;;5012612;28;20170;-86
2023/01/26 08:01:39;;;;;;;6.77;4.80;;;30.10;99.90;;;;;;4995315;28;20236;-85
2023/01/26 08:04:06;;;;;;;10.63;5.33;;;30.00;99.90;;;;;;5012248;28;20185;-83
2023/01/26 08:06:34;;;;;;;9.90;5.63;;;29.90;99.90;;;;;;5015905;28;20643;-82
2023/01/26 08:09:01;;;;;;;7.87;5.33;;;29.80;99.90;;;;;;5015910;28;20582;-84
2023/01/26 08:11:28;;;;;;;14.90;6.07;;;29.70;99.90;;;;;;5015819;28;20543;-86
2023/01/26 08:13:56;;;;;;;14.77;6.70;;;29.60;99.90;;;;;;5016516;28;20181;-82
2023/01/26 08:16:23;;;;;;;15.03;6.50;;;29.40;99.90;;;;;;5016370;28;20185;-83
2023/01/26 08:18:51;;;;;;;11.60;6.67;;;29.40;99.90;;;;;;5016548;28;20198;-84
2023/01/26 08:21:24;;;;;;;12.03;6.27;;;29.30;99.90;;;;;;5015990;28;20525;-84
2023/01/26 08:23:52;;;;;;;8.73;4.87;;;29.10;99.90;;;;;;5015237;28;20263;-83
2023/01/26 08:26:20;;;;;;;10.93;5.17;;;29.10;99.90;;;;;;4997763;28;20272;-78
2023/01/26 08:28:54;;;;;;;7.30;4.97;;;28.80;99.90;;;;;;4997943;28;20285;-79
2023/01/26 08:31:23;;;;;;;11.20;5.23;;;28.70;99.90;;;;;;5015535;28;20177;-79
2023/01/26 08:33:53;;;;;;;8.90;4.90;;;28.60;99.90;;;;;;5015586;28;20256;-79
2023/01/26 08:36:21;;;;;;;7.50;4.30;;;28.50;99.90;;;;;;5016239;28;20174;-78
2023/01/26 08:38:51;;;;;;;10.13;4.47;;;28.40;99.90;;;;;;5016101;28;20487;-78
2023/01/26 08:41:22;;;;;;;7.30;4.33;;;28.20;99.90;;;;;;5015671;28;20293;-78
2023/01/26 08:43:51;;;;;;;10.40;4.57;;;28.10;99.90;;;;;;4997574;28;20182;-78
2023/01/26 08:46:22;;;;;;;8.37;4.27;;;27.90;99.90;;;;;;5015766;28;20186;-79
2023/01/26 08:48:49;;;;;;;8.77;4.43;;;27.80;99.90;;;;;;4998011;28;20189;-80
2023/01/26 08:51:20;;;;;;;11.23;4.60;;;27.60;99.90;;;;;;5015617;28;20615;-78
2023/01/26 08:53:47;;;;;;;8.00;4.23;;;27.40;99.90;;;;;;5015590;28;20224;-78
2023/01/26 08:56:15;;;;;;;9.40;4.33;;;27.40;99.90;;;;;;4978872;28;20190;-78
2023/01/26 08:58:43;;;;;;;7.70;4.30;;;27.20;99.90;;;;;;5006780;28;20220;-79
2023/01/26 09:01:15;;;;;;;9.20;4.20;;;27.00;99.90;;;;;;4997497;28;20550;-80
2023/01/26 09:03:43;;;;;;;9.33;4.43;;;26.90;99.90;;;;;;5015241;28;20174;-77
2023/01/26 09:06:13;;;;;;;13.57;4.73;;;26.70;99.90;;;;;;5015198;28;20659;-77
2023/01/26 09:08:41;;;;;;;15.80;5.40;;;26.60;99.90;;;;;;5015097;28;20174;-79
2023/01/26 09:11:09;;;;;;;13.33;5.27;;;26.50;99.90;;;;;;5015352;28;20182;-79
2023/01/26 09:13:37;;;;;;;13.53;5.27;;;26.30;99.90;;;;;;5014848;28;20221;-77
2023/01/26 09:16:18;;;;;;;10.27;5.00;;;26.10;99.90;;;;;;5015134;28;20252;-77
2023/01/26 09:18:48;;;;;;;8.97;4.50;;;25.90;99.90;;;;;;5014477;28;20190;-78
2023/01/26 09:21:16;;;;;;;12.97;5.03;;;25.90;99.90;;;;;;5015239;28;20205;-79
2023/01/26 09:23:43;;;;;;;14.90;4.80;;;25.80;99.90;;;;;;5015321;28;20182;-79
2023/01/26 09:26:11;;;;;;;10.73;4.50;;;25.70;99.90;;;;;;4997090;28;20208;-79
2023/01/26 09:28:38;;;;;;;7.37;4.00;;;25.70;99.90;;;;;;5014526;28;20233;-77
2023/01/26 09:31:09;;;;;;;10.73;3.70;;;25.70;99.90;;;;;;5014858;28;20185;-77
2023/01/26 09:33:37;;;;;;;11.33;4.33;;;25.60;99.90;;;;;;5015054;28;20519;-78
2023/01/26 09:36:06;;;;;;;9.40;4.40;;;25.60;99.90;;;;;;5014971;28;20188;-78
2023/01/26 09:38:34;;;;;;;15.47;4.23;;;25.60;99.90;;;;;;5014810;28;20178;-81
2023/01/26 09:41:14;;;;;;;14.37;4.37;;;25.60;99.90;;;;;;4997406;28;20616;-78
2023/01/26 09:43:57;;;;;;;11.83;4.50;;;25.70;99.90;;;;;;5014903;28;20201;-78
2023/01/26 09:46:43;;;;;;;13.93;4.70;;;25.60;99.90;;;;;;4996691;28;20217;-79
2023/01/26 09:49:27;;;;;;;16.13;4.33;;;25.50;99.90;;;;;;5014278;28;20192;-79
2023/01/26 09:52:13;;;;;;;15.43;4.60;;;25.50;99.90;;;;;;5014509;28;20269;-79
2023/01/26 09:54:49;;;;;;;14.93;4.40;;;25.40;99.90;;;;;;5014739;28;20178;-76
2023/01/26 09:57:39;;;;;;;10.90;4.63;;;25.40;99.90;;;;;;4995353;28;20179;-78
2023/01/26 10:00:11;;;;;;;17.33;5.43;;;25.40;99.90;;;;;;5010066;28;20209;-78
2023/01/26 10:02:44;;;;;;;13.00;5.00;;;25.40;99.90;;;;;;5014468;28;20746;-78
2023/01/26 10:05:18;;;;;;;17.73;5.80;;;25.30;99.90;;;;;;4996413;28;20201;-78
2023/01/26 10:07:46;;;;;;;14.00;4.93;;;25.30;99.90;;;;;;5014248;28;20190;-79
2023/01/26 10:10:31;;;;;;;14.30;5.70;;;25.30;99.90;;;;;;5014299;28;20498;-79
2023/01/26 10:12:59;;;;;;;16.30;5.40;;;25.30;99.90;;;;;;5014206;28;20177;-81
2023/01/26 10:15:42;;;;;;;15.47;5.87;;;25.30;99.90;;;;;;5013358;28;20233;-75
2023/01/26 10:18:59;;;;;;;20.43;6.07;;;25.20;99.90;;;;;;5013264;28;20263;-78
2023/01/26 10:21:37;;;;;;;14.30;5.33;;;25.20;99.90;;;;;;4933697;29;20220;-80
2023/01/26 10:24:04;;;;;;;16.90;5.87;;;25.20;99.90;;;;;;4933889;29;20204;-78
2023/01/26 10:26:33;;;;;;;16.10;6.47;;;25.10;99.90;;;;;;4955239;28;20569;-78
2023/01/26 10:29:02;;;;;;;14.10;5.90;;;25.00;99.90;;;;;;4993641;28;20194;-79
2023/01/26 10:31:32;;;;;;;18.33;6.33;;;24.90;99.90;;;;;;4993497;28;20233;-77
2023/01/26 10:34:08;;;;;;;29.83;9.03;;;24.90;99.90;;;;;;4993551;28;20197;-77
2023/01/26 10:36:35;;;;;;;27.97;8.03;;;24.90;99.90;;;;;;5007511;28;20189;-78
2023/01/26 10:39:09;;;;;;;25.53;8.63;;;24.90;99.90;;;;;;4995130;28;20520;-78
2023/01/26 10:41:38;;;;;;;27.67;7.67;;;24.60;99.90;;;;;;5012718;28;20240;-76
2023/01/26 10:44:44;;;;;;;26.67;8.63;;;24.20;99.90;;;;;;5012969;28;20268;-77
2023/01/26 10:47:17;;;;;;;28.10;8.23;;;23.80;99.90;;;;;;4899248;29;20189;-76
2023/01/26 10:49:45;;;;;;;23.17;9.10;;;23.50;99.90;;;;;;4914548;29;20243;-77
2023/01/26 10:52:23;;;;;;;20.07;9.00;;;23.40;99.90;;;;;;4950462;28;20197;-77
2023/01/26 10:55:19;;;;;;;27.37;10.37;;;23.30;99.90;;;;;;4994736;28;20190;-77
2023/01/26 10:57:46;;;;;;;25.00;9.30;;;23.20;99.90;;;;;;5012895;28;20181;-77
2023/01/26 11:00:25;;;;;;;23.60;10.30;;;23.30;99.90;;;;;;5012536;28;20261;-77
2023/01/26 11:03:14;;;;;;;25.30;10.30;;;23.20;99.90;;;;;;4994940;28;20213;-77
2023/01/26 11:05:42;;;;;;;38.67;10.20;;;23.10;99.90;;;;;;4998620;28;20259;-79
2023/01/26 11:08:38;;;;;;;27.67;10.30;;;23.10;99.90;;;;;;4995207;28;20182;-77
2023/01/26 11:14:28;;;;;;;23.73;9.80;;;23.00;99.90;;;;;;5011904;28;20193;-77
2023/01/26 11:17:19;;;;;;;19.87;9.77;;;23.00;99.90;;;;;;5008204;28;20199;-77
2023/01/26 11:23:19;;;;;;;30.40;10.93;;;23.10;99.90;;;;;;5011930;28;20578;-77
2023/01/26 11:26:02;;;;;;;26.17;11.00;;;23.20;99.90;;;;;;4994617;28;20193;-77
2023/01/26 11:29:12;;;;;;;22.27;9.53;;;23.10;99.90;;;;;;4993143;28;20222;-77
2023/01/26 11:31:45;;;;;;;22.90;9.40;;;23.20;99.90;;;;;;4993308;28;20648;-78
2023/01/26 11:34:41;;;;;;;27.40;10.63;;;23.20;99.90;;;;;;5002699;28;20214;-76
2023/01/26 11:37:38;;;;;;;24.30;10.00;;;23.20;99.90;;;;;;4994837;28;20182;-77
2023/01/26 11:40:09;;;;;;;26.47;9.93;;;23.10;99.90;;;;;;4997119;28;20182;-77
2023/01/26 11:42:48;;;;;;;24.00;10.43;;;23.10;99.90;;;;;;5016357;28;20213;-76
2023/01/26 11:45:41;;;;;;;25.40;10.30;;;23.10;99.90;;;;;;5016009;28;20236;-78
2023/01/26 11:48:22;;;;;;;34.60;10.23;;;23.00;99.90;;;;;;4988405;28;20214;-76
2023/01/26 11:51:14;;;;;;;30.07;9.00;;;23.00;99.90;;;;;;4996778;28;20233;-77
2023/01/26 11:53:47;;;;;;;27.53;9.30;;;23.00;99.90;;;;;;4996818;28;20171;-78
2023/01/26 11:56:18;;;;;;;28.37;9.70;;;22.90;99.90;;;;;;4996604;28;20209;-78
2023/01/26 11:59:00;;;;;;;24.20;9.57;;;22.90;99.90;;;;;;5015913;28;20244;-77
2023/01/26 12:02:01;;;;;;;19.97;9.13;;;22.90;99.90;;;;;;5015915;28;20193;-76
2023/01/26 12:04:35;;;;;;;25.07;10.23;;;22.80;99.90;;;;;;5016256;28;20178;-77
2023/01/26 12:07:19;;;;;;;20.90;9.57;;;22.80;99.90;;;;;;5015688;28;20635;-78
2023/01/26 12:09:48;;;;;;;25.93;9.83;;;22.80;99.90;;;;;;5015580;28;20182;-76
2023/01/26 12:12:39;;;;;;;24.77;10.00;;;22.80;99.90;;;;;;5015362;28;20190;-76
2023/01/26 12:15:28;;;;;;;22.40;9.37;;;22.80;99.90;;;;;;5015939;28;20177;-77
2023/01/26 12:18:00;;;;;;;26.50;11.07;;;22.80;99.90;;;;;;4997703;28;20219;-78
2023/01/26 12:20:36;;;;;;;21.00;10.97;;;22.70;99.90;;;;;;5015737;28;20190;-79
2023/01/26 12:23:21;;;;;;;16.83;8.97;;;22.70;99.90;;;;;;5015669;28;20201;-76
2023/01/26 12:26:02;;;;;;;20.30;10.10;;;22.70;99.90;;;;;;4998194;28;20192;-78
2023/01/26 12:28:58;;;;;;;26.23;10.00;;;22.70;99.90;;;;;;5015540;28;20233;-76
2023/01/26 12:31:33;;;;;;;20.97;9.63;;;22.70;99.90;;;;;;5011146;28;20190;-77
2023/01/26 12:34:00;;;;;;;21.53;10.00;;;22.70;99.90;;;;;;5015480;28;20184;-77
2023/01/26 12:37:06;;;;;;;22.23;9.60;;;22.70;99.90;;;;;;5015394;28;20220;-77
2023/01/26 12:39:47;;;;;;;22.60;10.30;;;22.70;99.90;;;;;;4928749;28;20232;-76
2023/01/26 12:42:23;;;;;;;21.63;10.00;;;22.70;99.90;;;;;;5014736;28;20666;-75
2023/01/26 12:44:54;;;;;;;20.50;10.50;;;22.70;99.90;;;;;;5015612;28;20686;-74
2023/01/26 12:47:42;;;;;;;18.10;9.57;;;22.60;99.90;;;;;;5014740;28;20226;-74
2023/01/26 12:50:39;;;;;;;17.27;8.83;;;22.60;99.90;;;;;;4979692;28;20321;-77
2023/01/26 12:53:17;;;;;;;18.07;8.80;;;22.60;99.90;;;;;;4996819;28;20689;-76
2023/01/26 12:56:21;;;;;;;24.43;10.17;;;22.70;99.90;;;;;;5013496;28;20189;-75
2023/01/26 12:58:51;;;;;;;20.73;8.87;;;22.60;99.90;;;;;;5013442;28;20186;-78
2023/01/26 13:01:22;;;;;;;18.33;8.93;;;22.60;99.90;;;;;;5014302;28;20606;-77
2023/01/26 13:04:00;;;;;;;20.13;8.43;;;22.50;99.90;;;;;;4996640;28;20189;-77
2023/01/26 13:06:29;;;;;;;26.70;9.70;;;22.50;99.90;;;;;;5014330;28;20195;-77
2023/01/26 13:09:17;;;;;;;25.67;8.43;;;22.50;99.90;;;;;;4996971;28;20273;-77
2023/01/26 13:12:00;;;;;;;19.30;8.57;;;22.50;99.90;;;;;;5014569;28;20201;-75
2023/01/26 13:14:42;;;;;;;19.60;8.13;;;22.50;99.90;;;;;;5013510;28;20186;-73
2023/01/26 13:17:16;;;;;;;14.23;6.77;;;22.50;99.90;;;;;;4996270;28;20248;-75
2023/01/26 13:19:43;;;;;;;15.10;7.90;;;22.50;99.90;;;;;;4996179;28;20213;-75
2023/01/26 13:22:23;;;;;;;22.10;8.83;;;22.50;99.90;;;;;;4996617;28;20225;-74
2023/01/26 13:24:56;;;;;;;20.83;8.73;;;22.50;99.90;;;;;;5013929;28;20201;-74
2023/01/26 13:27:40;;;;;;;20.67;8.00;;;22.50;99.90;;;;;;5014055;28;20233;-77
2023/01/26 13:30:25;;;;;;;17.03;7.27;;;22.50;99.90;;;;;;4977413;28;20232;-78
2023/01/26 13:33:25;;;;;;;19.10;7.93;;;22.50;99.90;;;;;;5013633;28;20184;-75
2023/01/26 13:35:54;;;;;;;18.50;7.93;;;22.60;99.90;;;;;;4991393;28;20655;-75
2023/01/26 13:38:50;;;;;;;15.13;7.10;;;22.60;99.90;;;;;;5013642;28;20252;-76
2023/01/26 13:41:19;;;;;;;13.17;6.23;;;22.70;99.90;;;;;;4994872;28;20292;-75
2023/01/26 13:44:08;;;;;;;21.90;8.13;;;22.80;99.90;;;;;;4996608;28;20182;-75
2023/01/26 13:47:25;;;;;;;18.43;7.20;;;22.90;99.90;;;;;;5011554;28;20671;-74
2023/01/26 13:49:53;;;;;;;16.93;8.40;;;22.90;99.90;;;;;;4988603;28;20197;-77
2023/01/26 13:52:25;;;;;;;19.80;8.87;;;22.80;99.90;;;;;;5012788;28;20646;-73
2023/01/26 13:54:59;;;;;;;20.70;9.47;;;22.70;99.90;;;;;;5012991;28;20189;-77
2023/01/26 13:57:29;;;;;;;26.40;14.90;;;22.70;99.90;;;;;;5012613;28;20208;-74
2023/01/26 14:00:00;;;;;;;22.37;12.80;;;22.60;99.90;;;;;;5013839;28;20192;-74
2023/01/26 14:02:34;;;;;;;20.90;11.87;;;22.60;99.90;;;;;;5012515;28;20213;-74
2023/01/26 14:05:02;;;;;;;17.33;11.10;;;22.60;99.90;;;;;;5001872;28;20207;-75
2023/01/26 14:07:35;;;;;;;17.17;10.83;;;22.50;99.90;;;;;;4995522;28;20639;-74